sensor_id;sensor_type;location;lat;lon;timestamp;temperature;humidity
53695;DHT22;39588;51.124;7.190;2022-12-18T00:03:42;-4.10;96.00
53695;DHT22;39588;51.124;7.190;2022-12-18T00:06:08;-4.20;96.10
53695;DHT22;39588;51.124;7.190;2022-12-18T00:08:34;-4.20;95.90
53695;DHT22;39588;51.124;7.190;2022-12-18T00:11:04;-4.20;95.90
53695;DHT22;39588;51.124;7.190;2022-12-18T00:13:30;-4.20;96.00
53695;DHT22;39588;51.124;7.190;2022-12-18T00:16:02;-4.20;96.00
53695;DHT22;39588;51.124;7.190;2022-12-18T00:18:28;-4.20;95.90
53695;DHT22;39588;51.124;7.190;2022-12-18T00:23:19;-4.10;95.90
53695;DHT22;39588;51.124;7.190;2022-12-18T00:25:45;-4.20;95.80
53695;DHT22;39588;51.124;7.190;2022-12-18T00:28:10;-4.20;96.00
53695;DHT22;39588;51.124;7.190;2022-12-18T00:30:36;-4.20;95.80
53695;DHT22;39588;51.124;7.190;2022-12-18T00:33:01;-4.20;95.80
53695;DHT22;39588;51.124;7.190;2022-12-18T00:35:27;-4.20;95.80
53695;DHT22;39588;51.124;7.190;2022-12-18T00:37:53;-4.20;95.80
53695;DHT22;39588;51.124;7.190;2022-12-18T00:40:18;-4.20;95.80
53695;DHT22;39588;51.124;7.190;2022-12-18T00:42:44;-4.20;95.80
53695;DHT22;39588;51.124;7.190;2022-12-18T00:45:31;-4.20;95.80
53695;DHT22;39588;51.124;7.190;2022-12-18T00:47:57;-4.20;95.80
53695;DHT22;39588;51.124;7.190;2022-12-18T00:50:24;-4.20;95.80
53695;DHT22;39588;51.124;7.190;2022-12-18T00:52:50;-4.20;95.80
53695;DHT22;39588;51.124;7.190;2022-12-18T00:55:16;-4.20;95.80
53695;DHT22;39588;51.124;7.190;2022-12-18T00:57:42;-4.20;95.80
53695;DHT22;39588;51.124;7.190;2022-12-18T01:00:11;-4.20;95.80
53695;DHT22;39588;51.124;7.190;2022-12-18T01:02:37;-4.20;95.80
53695;DHT22;39588;51.124;7.190;2022-12-18T01:05:03;-4.20;95.80
53695;DHT22;39588;51.124;7.190;2022-12-18T01:07:29;-4.30;95.80
53695;DHT22;39588;51.124;7.190;2022-12-18T01:12:21;-4.20;95.80
53695;DHT22;39588;51.124;7.190;2022-12-18T01:14:47;-4.30;95.80
53695;DHT22;39588;51.124;7.190;2022-12-18T01:19:38;-4.20;95.80
53695;DHT22;39588;51.124;7.190;2022-12-18T01:22:04;-4.20;95.80
53695;DHT22;39588;51.124;7.190;2022-12-18T01:24:29;-4.20;95.80
53695;DHT22;39588;51.124;7.190;2022-12-18T01:26:55;-4.20;96.00
53695;DHT22;39588;51.124;7.190;2022-12-18T01:29:22;-4.30;95.80
53695;DHT22;39588;51.124;7.190;2022-12-18T01:31:48;-4.30;95.80
53695;DHT22;39588;51.124;7.190;2022-12-18T01:34:13;-4.30;95.80
53695;DHT22;39588;51.124;7.190;2022-12-18T01:36:39;-4.30;95.80
53695;DHT22;39588;51.124;7.190;2022-12-18T01:39:12;-4.30;95.80
53695;DHT22;39588;51.124;7.190;2022-12-18T01:41:38;-4.30;95.80
53695;DHT22;39588;51.124;7.190;2022-12-18T01:44:56;-4.30;95.80
53695;DHT22;39588;51.124;7.190;2022-12-18T01:50:28;-4.20;95.90
53695;DHT22;39588;51.124;7.190;2022-12-18T01:52:59;-4.20;95.80
53695;DHT22;39588;51.124;7.190;2022-12-18T01:55:29;-4.20;95.80
53695;DHT22;39588;51.124;7.190;2022-12-18T01:57:58;-4.20;95.80
53695;DHT22;39588;51.124;7.190;2022-12-18T02:00:25;-4.20;95.80
53695;DHT22;39588;51.124;7.190;2022-12-18T02:02:52;-4.20;95.80
53695;DHT22;39588;51.124;7.190;2022-12-18T02:05:44;-4.20;95.80
53695;DHT22;39588;51.124;7.190;2022-12-18T02:08:33;-4.20;95.80
53695;DHT22;39588;51.124;7.190;2022-12-18T02:11:08;-4.20;95.80
53695;DHT22;39588;51.124;7.190;2022-12-18T02:13:44;-4.20;96.00
53695;DHT22;39588;51.124;7.190;2022-12-18T02:16:24;-4.10;95.90
53695;DHT22;39588;51.124;7.190;2022-12-18T02:18:57;-4.20;95.80
53695;DHT22;39588;51.124;7.190;2022-12-18T02:22:20;-4.20;95.90
53695;DHT22;39588;51.124;7.190;2022-12-18T02:24:53;-4.20;95.80
53695;DHT22;39588;51.124;7.190;2022-12-18T02:27:19;-4.20;96.00
53695;DHT22;39588;51.124;7.190;2022-12-18T02:29:51;-4.20;95.80
53695;DHT22;39588;51.124;7.190;2022-12-18T02:32:24;-4.20;95.80
53695;DHT22;39588;51.124;7.190;2022-12-18T02:34:53;-4.20;95.80
53695;DHT22;39588;51.124;7.190;2022-12-18T02:37:21;-4.10;95.90
53695;DHT22;39588;51.124;7.190;2022-12-18T02:39:49;-4.10;95.90
53695;DHT22;39588;51.124;7.190;2022-12-18T02:42:19;-4.10;96.10
53695;DHT22;39588;51.124;7.190;2022-12-18T02:44:46;-4.10;96.10
53695;DHT22;39588;51.124;7.190;2022-12-18T02:47:14;-4.20;95.90
53695;DHT22;39588;51.124;7.190;2022-12-18T02:55:12;-4.10;96.00
53695;DHT22;39588;51.124;7.190;2022-12-18T03:00:41;-4.10;96.00
53695;DHT22;39588;51.124;7.190;2022-12-18T03:03:13;-4.10;96.00
53695;DHT22;39588;51.124;7.190;2022-12-18T03:05:45;-4.10;96.00
53695;DHT22;39588;51.124;7.190;2022-12-18T03:08:18;-4.10;96.00
53695;DHT22;39588;51.124;7.190;2022-12-18T03:10:56;-4.10;96.00
53695;DHT22;39588;51.124;7.190;2022-12-18T03:13:43;-4.10;96.00
53695;DHT22;39588;51.124;7.190;2022-12-18T03:16:14;-4.10;96.00
53695;DHT22;39588;51.124;7.190;2022-12-18T03:19:03;-4.00;96.00
53695;DHT22;39588;51.124;7.190;2022-12-18T03:21:41;-4.10;96.00
53695;DHT22;39588;51.124;7.190;2022-12-18T03:24:09;-4.10;96.00
53695;DHT22;39588;51.124;7.190;2022-12-18T03:26:38;-4.10;96.00
53695;DHT22;39588;51.124;7.190;2022-12-18T03:29:17;-4.10;96.00
53695;DHT22;39588;51.124;7.190;2022-12-18T03:31:49;-4.10;96.10
53695;DHT22;39588;51.124;7.190;2022-12-18T03:34:22;-4.10;96.10
53695;DHT22;39588;51.124;7.190;2022-12-18T03:36:48;-4.00;96.10
53695;DHT22;39588;51.124;7.190;2022-12-18T03:39:14;-4.00;96.10
53695;DHT22;39588;51.124;7.190;2022-12-18T03:41:57;-4.00;96.10
53695;DHT22;39588;51.124;7.190;2022-12-18T03:47:16;-4.00;96.10
53695;DHT22;39588;51.124;7.190;2022-12-18T03:52:45;-4.00;96.10
53695;DHT22;39588;51.124;7.190;2022-12-18T03:55:13;-3.90;96.10
53695;DHT22;39588;51.124;7.190;2022-12-18T03:57:39;-4.00;96.00
53695;DHT22;39588;51.124;7.190;2022-12-18T04:00:12;-3.90;96.10
53695;DHT22;39588;51.124;7.190;2022-12-18T04:02:42;-4.00;96.00
53695;DHT22;39588;51.124;7.190;2022-12-18T04:05:10;-4.00;96.00
53695;DHT22;39588;51.124;7.190;2022-12-18T04:07:36;-4.00;96.00
53695;DHT22;39588;51.124;7.190;2022-12-18T04:10:05;-3.90;96.10
53695;DHT22;39588;51.124;7.190;2022-12-18T04:12:32;-3.90;96.10
53695;DHT22;39588;51.124;7.190;2022-12-18T04:14:57;-3.90;96.00
53695;DHT22;39588;51.124;7.190;2022-12-18T04:17:23;-3.90;96.00
53695;DHT22;39588;51.124;7.190;2022-12-18T04:19:49;-3.90;95.90
53695;DHT22;39588;51.124;7.190;2022-12-18T04:22:15;-3.90;95.90
53695;DHT22;39588;51.124;7.190;2022-12-18T04:24:40;-3.90;95.90
53695;DHT22;39588;51.124;7.190;2022-12-18T04:27:06;-3.90;96.00
53695;DHT22;39588;51.124;7.190;2022-12-18T04:29:32;-3.90;96.00
53695;DHT22;39588;51.124;7.190;2022-12-18T04:31:58;-3.90;95.90
53695;DHT22;39588;51.124;7.190;2022-12-18T04:34:23;-3.90;96.00
53695;DHT22;39588;51.124;7.190;2022-12-18T04:36:49;-3.90;96.00
53695;DHT22;39588;51.124;7.190;2022-12-18T04:39:18;-3.90;95.90
53695;DHT22;39588;51.124;7.190;2022-12-18T04:41:43;-3.90;95.90
53695;DHT22;39588;51.124;7.190;2022-12-18T04:44:09;-3.90;95.90
53695;DHT22;39588;51.124;7.190;2022-12-18T04:46:35;-3.80;95.90
53695;DHT22;39588;51.124;7.190;2022-12-18T04:49:00;-3.80;95.90
53695;DHT22;39588;51.124;7.190;2022-12-18T04:56:18;-3.80;95.80
53695;DHT22;39588;51.124;7.190;2022-12-18T04:58:44;-3.80;95.80
53695;DHT22;39588;51.124;7.190;2022-12-18T05:01:13;-3.80;95.80
53695;DHT22;39588;51.124;7.190;2022-12-18T05:03:39;-3.70;95.80
53695;DHT22;39588;51.124;7.190;2022-12-18T05:06:06;-3.70;95.80
53695;DHT22;39588;51.124;7.190;2022-12-18T05:08:32;-3.70;95.70
53695;DHT22;39588;51.124;7.190;2022-12-18T05:10:59;-3.70;95.60
53695;DHT22;39588;51.124;7.190;2022-12-18T05:15:52;-3.70;95.70
53695;DHT22;39588;51.124;7.190;2022-12-18T05:18:18;-3.70;95.70
53695;DHT22;39588;51.124;7.190;2022-12-18T05:20:44;-3.70;95.60
53695;DHT22;39588;51.124;7.190;2022-12-18T05:25:35;-3.70;95.60
53695;DHT22;39588;51.124;7.190;2022-12-18T05:30:27;-3.70;95.60
53695;DHT22;39588;51.124;7.190;2022-12-18T05:32:53;-3.70;95.70
53695;DHT22;39588;51.124;7.190;2022-12-18T05:35:19;-3.70;95.60
53695;DHT22;39588;51.124;7.190;2022-12-18T05:37:44;-3.70;95.60
53695;DHT22;39588;51.124;7.190;2022-12-18T05:40:11;-3.70;95.60
53695;DHT22;39588;51.124;7.190;2022-12-18T05:42:36;-3.70;95.50
53695;DHT22;39588;51.124;7.190;2022-12-18T05:45:03;-3.70;95.70
53695;DHT22;39588;51.124;7.190;2022-12-18T05:47:29;-3.70;95.60
53695;DHT22;39588;51.124;7.190;2022-12-18T05:49:55;-3.70;95.60
53695;DHT22;39588;51.124;7.190;2022-12-18T05:52:21;-3.70;95.50
53695;DHT22;39588;51.124;7.190;2022-12-18T05:54:46;-3.70;95.50
53695;DHT22;39588;51.124;7.190;2022-12-18T05:57:12;-3.70;95.50
53695;DHT22;39588;51.124;7.190;2022-12-18T05:59:37;-3.70;95.50
53695;DHT22;39588;51.124;7.190;2022-12-18T06:02:03;-3.70;95.50
53695;DHT22;39588;51.124;7.190;2022-12-18T06:04:30;-3.70;95.50
53695;DHT22;39588;51.124;7.190;2022-12-18T06:06:56;-3.70;95.40
53695;DHT22;39588;51.124;7.190;2022-12-18T06:09:22;-3.60;95.40
53695;DHT22;39588;51.124;7.190;2022-12-18T06:11:47;-3.60;95.40
53695;DHT22;39588;51.124;7.190;2022-12-18T06:14:13;-3.60;95.30
53695;DHT22;39588;51.124;7.190;2022-12-18T06:16:38;-3.60;95.30
53695;DHT22;39588;51.124;7.190;2022-12-18T06:19:05;-3.70;95.30
53695;DHT22;39588;51.124;7.190;2022-12-18T06:21:31;-3.60;95.30
53695;DHT22;39588;51.124;7.190;2022-12-18T06:26:23;-3.60;95.20
53695;DHT22;39588;51.124;7.190;2022-12-18T06:28:49;-3.60;95.30
53695;DHT22;39588;51.124;7.190;2022-12-18T06:36:10;-3.60;95.10
53695;DHT22;39588;51.124;7.190;2022-12-18T06:38:38;-3.60;95.20
53695;DHT22;39588;51.124;7.190;2022-12-18T06:41:15;-3.60;95.20
53695;DHT22;39588;51.124;7.190;2022-12-18T06:43:41;-3.60;95.10
53695;DHT22;39588;51.124;7.190;2022-12-18T06:46:07;-3.60;95.10
53695;DHT22;39588;51.124;7.190;2022-12-18T06:48:34;-3.60;95.10
53695;DHT22;39588;51.124;7.190;2022-12-18T06:51:00;-3.60;95.10
53695;DHT22;39588;51.124;7.190;2022-12-18T06:53:26;-3.60;95.10
53695;DHT22;39588;51.124;7.190;2022-12-18T06:55:51;-3.60;95.10
53695;DHT22;39588;51.124;7.190;2022-12-18T06:58:17;-3.60;95.10
53695;DHT22;39588;51.124;7.190;2022-12-18T07:00:43;-3.60;95.00
53695;DHT22;39588;51.124;7.190;2022-12-18T07:03:09;-3.60;95.00
53695;DHT22;39588;51.124;7.190;2022-12-18T07:05:40;-3.70;95.00
53695;DHT22;39588;51.124;7.190;2022-12-18T07:08:06;-3.70;95.00
53695;DHT22;39588;51.124;7.190;2022-12-18T07:10:32;-3.70;95.00
53695;DHT22;39588;51.124;7.190;2022-12-18T07:12:57;-3.60;95.00
53695;DHT22;39588;51.124;7.190;2022-12-18T07:15:23;-3.70;95.00
53695;DHT22;39588;51.124;7.190;2022-12-18T07:17:48;-3.70;95.00
53695;DHT22;39588;51.124;7.190;2022-12-18T07:20:14;-3.60;95.00
53695;DHT22;39588;51.124;7.190;2022-12-18T07:22:40;-3.60;95.00
53695;DHT22;39588;51.124;7.190;2022-12-18T07:25:06;-3.70;95.00
53695;DHT22;39588;51.124;7.190;2022-12-18T07:27:32;-3.70;95.00
53695;DHT22;39588;51.124;7.190;2022-12-18T07:32:24;-3.70;95.00
53695;DHT22;39588;51.124;7.190;2022-12-18T07:34:49;-3.60;95.00
53695;DHT22;39588;51.124;7.190;2022-12-18T07:37:15;-3.60;94.90
53695;DHT22;39588;51.124;7.190;2022-12-18T07:39:40;-3.60;94.90
53695;DHT22;39588;51.124;7.190;2022-12-18T07:42:06;-3.60;94.90
53695;DHT22;39588;51.124;7.190;2022-12-18T07:44:50;-3.60;94.90
53695;DHT22;39588;51.124;7.190;2022-12-18T07:47:15;-3.50;94.90
53695;DHT22;39588;51.124;7.190;2022-12-18T07:49:41;-3.50;94.80
53695;DHT22;39588;51.124;7.190;2022-12-18T07:52:06;-3.50;94.80
53695;DHT22;39588;51.124;7.190;2022-12-18T07:56:58;-3.40;94.80
53695;DHT22;39588;51.124;7.190;2022-12-18T07:59:24;-3.40;94.70
53695;DHT22;39588;51.124;7.190;2022-12-18T08:01:50;-3.40;94.80
53695;DHT22;39588;51.124;7.190;2022-12-18T08:04:16;-3.40;94.70
53695;DHT22;39588;51.124;7.190;2022-12-18T08:06:41;-3.30;94.70
53695;DHT22;39588;51.124;7.190;2022-12-18T08:09:07;-3.30;94.60
53695;DHT22;39588;51.124;7.190;2022-12-18T08:11:34;-3.30;94.60
53695;DHT22;39588;51.124;7.190;2022-12-18T08:13:59;-3.20;94.60
53695;DHT22;39588;51.124;7.190;2022-12-18T08:16:25;-3.20;94.60
53695;DHT22;39588;51.124;7.190;2022-12-18T08:18:52;-3.10;94.50
53695;DHT22;39588;51.124;7.190;2022-12-18T08:21:21;-3.10;94.50
53695;DHT22;39588;51.124;7.190;2022-12-18T08:23:49;-3.00;94.50
53695;DHT22;39588;51.124;7.190;2022-12-18T08:26:14;-3.00;94.50
53695;DHT22;39588;51.124;7.190;2022-12-18T08:28:40;-3.00;94.40
53695;DHT22;39588;51.124;7.190;2022-12-18T08:31:06;-2.90;94.30
53695;DHT22;39588;51.124;7.190;2022-12-18T08:33:32;-2.90;94.30
53695;DHT22;39588;51.124;7.190;2022-12-18T08:35:59;-2.80;94.40
53695;DHT22;39588;51.124;7.190;2022-12-18T08:38:25;-2.80;94.40
53695;DHT22;39588;51.124;7.190;2022-12-18T08:41:01;-2.80;94.30
53695;DHT22;39588;51.124;7.190;2022-12-18T08:43:27;-2.70;94.20
53695;DHT22;39588;51.124;7.190;2022-12-18T08:46:12;-2.60;94.20
53695;DHT22;39588;51.124;7.190;2022-12-18T08:48:37;-2.60;94.20
53695;DHT22;39588;51.124;7.190;2022-12-18T08:51:03;-2.50;94.10
53695;DHT22;39588;51.124;7.190;2022-12-18T08:53:29;-2.40;94.00
53695;DHT22;39588;51.124;7.190;2022-12-18T08:55:56;-2.40;94.20
53695;DHT22;39588;51.124;7.190;2022-12-18T08:58:22;-2.30;94.00
53695;DHT22;39588;51.124;7.190;2022-12-18T09:00:48;-2.20;93.90
53695;DHT22;39588;51.124;7.190;2022-12-18T09:03:18;-2.10;93.90
53695;DHT22;39588;51.124;7.190;2022-12-18T09:05:46;-2.00;93.70
53695;DHT22;39588;51.124;7.190;2022-12-18T09:08:12;-1.90;93.50
53695;DHT22;39588;51.124;7.190;2022-12-18T09:10:48;-1.80;93.50
53695;DHT22;39588;51.124;7.190;2022-12-18T09:13:15;-1.70;93.30
53695;DHT22;39588;51.124;7.190;2022-12-18T09:15:52;-1.70;93.50
53695;DHT22;39588;51.124;7.190;2022-12-18T09:18:19;-1.60;93.40
53695;DHT22;39588;51.124;7.190;2022-12-18T09:20:45;-1.60;93.40
53695;DHT22;39588;51.124;7.190;2022-12-18T09:23:11;-1.60;93.30
53695;DHT22;39588;51.124;7.190;2022-12-18T09:25:38;-1.60;93.20
53695;DHT22;39588;51.124;7.190;2022-12-18T09:28:12;-1.60;93.30
53695;DHT22;39588;51.124;7.190;2022-12-18T09:30:39;-1.50;92.90
53695;DHT22;39588;51.124;7.190;2022-12-18T09:33:05;-1.40;92.90
53695;DHT22;39588;51.124;7.190;2022-12-18T09:35:30;-1.40;92.90
53695;DHT22;39588;51.124;7.190;2022-12-18T09:37:56;-1.30;92.80
53695;DHT22;39588;51.124;7.190;2022-12-18T09:40:24;-1.20;92.50
53695;DHT22;39588;51.124;7.190;2022-12-18T09:43:01;-1.10;92.30
53695;DHT22;39588;51.124;7.190;2022-12-18T09:45:30;-1.00;92.50
53695;DHT22;39588;51.124;7.190;2022-12-18T09:48:00;-0.90;92.20
53695;DHT22;39588;51.124;7.190;2022-12-18T09:50:31;-0.80;92.20
53695;DHT22;39588;51.124;7.190;2022-12-18T09:53:05;-0.80;92.00
53695;DHT22;39588;51.124;7.190;2022-12-18T09:55:37;-0.80;91.80
53695;DHT22;39588;51.124;7.190;2022-12-18T09:58:19;-0.70;91.70
53695;DHT22;39588;51.124;7.190;2022-12-18T10:00:45;-0.60;91.40
53695;DHT22;39588;51.124;7.190;2022-12-18T10:03:13;-0.60;91.00
53695;DHT22;39588;51.124;7.190;2022-12-18T10:11:38;-0.50;91.30
53695;DHT22;39588;51.124;7.190;2022-12-18T10:20:40;-0.50;91.00
53695;DHT22;39588;51.124;7.190;2022-12-18T10:26:12;-0.30;90.60
53695;DHT22;39588;51.124;7.190;2022-12-18T10:28:40;-0.20;90.50
53695;DHT22;39588;51.124;7.190;2022-12-18T10:31:16;-0.20;90.90
53695;DHT22;39588;51.124;7.190;2022-12-18T10:33:43;-0.20;90.50
53695;DHT22;39588;51.124;7.190;2022-12-18T10:36:08;-0.10;90.50
53695;DHT22;39588;51.124;7.190;2022-12-18T10:38:34;-0.10;90.50
53695;DHT22;39588;51.124;7.190;2022-12-18T10:41:06;0.00;91.10
53695;DHT22;39588;51.124;7.190;2022-12-18T10:48:46;0.30;90.80
53695;DHT22;39588;51.124;7.190;2022-12-18T10:51:39;0.30;90.20
53695;DHT22;39588;51.124;7.190;2022-12-18T10:54:23;0.40;90.20
53695;DHT22;39588;51.124;7.190;2022-12-18T10:56:49;0.40;90.60
53695;DHT22;39588;51.124;7.190;2022-12-18T10:59:17;0.50;90.20
53695;DHT22;39588;51.124;7.190;2022-12-18T11:01:58;0.50;90.10
53695;DHT22;39588;51.124;7.190;2022-12-18T11:04:29;0.50;89.10
53695;DHT22;39588;51.124;7.190;2022-12-18T11:07:08;0.50;88.40
53695;DHT22;39588;51.124;7.190;2022-12-18T11:09:36;0.50;89.70
53695;DHT22;39588;51.124;7.190;2022-12-18T11:12:25;0.50;88.60
53695;DHT22;39588;51.124;7.190;2022-12-18T11:14:54;0.50;88.70
53695;DHT22;39588;51.124;7.190;2022-12-18T11:17:28;0.50;88.70
53695;DHT22;39588;51.124;7.190;2022-12-18T11:20:07;0.60;90.10
53695;DHT22;39588;51.124;7.190;2022-12-18T11:22:58;0.60;88.20
53695;DHT22;39588;51.124;7.190;2022-12-18T11:25:24;0.70;89.10
53695;DHT22;39588;51.124;7.190;2022-12-18T11:28:00;0.70;90.00
53695;DHT22;39588;51.124;7.190;2022-12-18T11:30:36;0.60;88.60
53695;DHT22;39588;51.124;7.190;2022-12-18T11:33:09;0.60;90.00
53695;DHT22;39588;51.124;7.190;2022-12-18T11:38:28;0.70;90.00
53695;DHT22;39588;51.124;7.190;2022-12-18T11:43:41;0.70;89.70
53695;DHT22;39588;51.124;7.190;2022-12-18T11:46:15;0.80;88.10
53695;DHT22;39588;51.124;7.190;2022-12-18T11:48:54;0.80;87.40
53695;DHT22;39588;51.124;7.190;2022-12-18T11:51:33;0.80;88.80
53695;DHT22;39588;51.124;7.190;2022-12-18T11:54:00;0.80;88.70
53695;DHT22;39588;51.124;7.190;2022-12-18T11:56:35;0.80;88.90
53695;DHT22;39588;51.124;7.190;2022-12-18T11:59:08;0.80;88.90
53695;DHT22;39588;51.124;7.190;2022-12-18T12:07:21;0.80;90.00
53695;DHT22;39588;51.124;7.190;2022-12-18T12:15:59;0.90;88.90
53695;DHT22;39588;51.124;7.190;2022-12-18T12:23:53;0.90;89.90
53695;DHT22;39588;51.124;7.190;2022-12-18T12:35:21;0.70;91.10
53695;DHT22;39588;51.124;7.190;2022-12-18T12:37:55;0.70;91.10
53695;DHT22;39588;51.124;7.190;2022-12-18T12:40:28;0.60;90.70
53695;DHT22;39588;51.124;7.190;2022-12-18T12:45:57;0.70;91.20
53695;DHT22;39588;51.124;7.190;2022-12-18T12:51:00;0.70;91.20
53695;DHT22;39588;51.124;7.190;2022-12-18T12:53:31;0.70;91.50
53695;DHT22;39588;51.124;7.190;2022-12-18T12:55:58;0.60;91.60
53695;DHT22;39588;51.124;7.190;2022-12-18T12:58:38;0.60;91.80
53695;DHT22;39588;51.124;7.190;2022-12-18T13:01:24;0.60;91.80
53695;DHT22;39588;51.124;7.190;2022-12-18T13:04:20;0.60;91.60
53695;DHT22;39588;51.124;7.190;2022-12-18T13:07:15;0.70;91.90
53695;DHT22;39588;51.124;7.190;2022-12-18T13:18:26;0.50;92.40
53695;DHT22;39588;51.124;7.190;2022-12-18T13:31:01;0.20;92.60
53695;DHT22;39588;51.124;7.190;2022-12-18T13:33:34;0.30;92.60
53695;DHT22;39588;51.124;7.190;2022-12-18T13:36:36;0.30;92.60
53695;DHT22;39588;51.124;7.190;2022-12-18T13:41:45;0.10;92.60
53695;DHT22;39588;51.124;7.190;2022-12-18T13:44:22;0.20;92.50
53695;DHT22;39588;51.124;7.190;2022-12-18T13:46:50;0.20;92.30
53695;DHT22;39588;51.124;7.190;2022-12-18T13:49:24;0.20;92.20
53695;DHT22;39588;51.124;7.190;2022-12-18T13:51:55;0.20;92.20
53695;DHT22;39588;51.124;7.190;2022-12-18T13:54:41;0.10;92.20
53695;DHT22;39588;51.124;7.190;2022-12-18T13:57:34;0.10;92.30
53695;DHT22;39588;51.124;7.190;2022-12-18T14:02:48;0.10;92.50
53695;DHT22;39588;51.124;7.190;2022-12-18T14:07:49;0.20;92.30
53695;DHT22;39588;51.124;7.190;2022-12-18T14:10:15;0.20;92.10
53695;DHT22;39588;51.124;7.190;2022-12-18T14:12:46;0.10;92.20
53695;DHT22;39588;51.124;7.190;2022-12-18T14:17:59;0.00;92.20
53695;DHT22;39588;51.124;7.190;2022-12-18T14:20:26;0.00;91.70
53695;DHT22;39588;51.124;7.190;2022-12-18T14:22:53;0.00;91.70
53695;DHT22;39588;51.124;7.190;2022-12-18T14:25:25;-0.10;91.70
53695;DHT22;39588;51.124;7.190;2022-12-18T14:28:13;-0.20;92.00
53695;DHT22;39588;51.124;7.190;2022-12-18T14:30:41;-0.20;92.20
53695;DHT22;39588;51.124;7.190;2022-12-18T14:33:16;-0.20;92.20
53695;DHT22;39588;51.124;7.190;2022-12-18T14:38:29;-0.20;92.20
53695;DHT22;39588;51.124;7.190;2022-12-18T14:40:58;-0.20;92.20
53695;DHT22;39588;51.124;7.190;2022-12-18T14:43:24;-0.30;91.90
53695;DHT22;39588;51.124;7.190;2022-12-18T14:45:50;-0.30;92.10
53695;DHT22;39588;51.124;7.190;2022-12-18T14:48:31;-0.40;92.00
53695;DHT22;39588;51.124;7.190;2022-12-18T14:53:34;-0.60;92.10
53695;DHT22;39588;51.124;7.190;2022-12-18T14:56:01;-0.60;92.10
53695;DHT22;39588;51.124;7.190;2022-12-18T14:58:27;-0.60;92.10
53695;DHT22;39588;51.124;7.190;2022-12-18T15:00:53;-0.60;91.80
53695;DHT22;39588;51.124;7.190;2022-12-18T15:03:20;-0.70;92.10
53695;DHT22;39588;51.124;7.190;2022-12-18T15:08:35;-0.70;92.10
53695;DHT22;39588;51.124;7.190;2022-12-18T15:11:01;-0.70;92.20
53695;DHT22;39588;51.124;7.190;2022-12-18T15:13:26;-0.80;92.10
53695;DHT22;39588;51.124;7.190;2022-12-18T15:15:54;-0.70;92.10
53695;DHT22;39588;51.124;7.190;2022-12-18T15:18:29;-0.80;92.30
53695;DHT22;39588;51.124;7.190;2022-12-18T15:20:59;-0.80;92.10
53695;DHT22;39588;51.124;7.190;2022-12-18T15:26:04;-0.80;92.20
53695;DHT22;39588;51.124;7.190;2022-12-18T15:28:51;-0.80;92.50
53695;DHT22;39588;51.124;7.190;2022-12-18T15:36:20;-0.80;92.20
53695;DHT22;39588;51.124;7.190;2022-12-18T15:38:50;-0.80;92.40
53695;DHT22;39588;51.124;7.190;2022-12-18T15:41:18;-0.80;92.30
53695;DHT22;39588;51.124;7.190;2022-12-18T15:43:45;-0.80;92.40
53695;DHT22;39588;51.124;7.190;2022-12-18T15:48:50;-0.90;92.50
53695;DHT22;39588;51.124;7.190;2022-12-18T15:51:20;-0.90;92.60
53695;DHT22;39588;51.124;7.190;2022-12-18T15:53:48;-0.90;92.70
53695;DHT22;39588;51.124;7.190;2022-12-18T15:56:15;-1.00;92.80
53695;DHT22;39588;51.124;7.190;2022-12-18T15:59:01;-0.30;93.30
53695;DHT22;39588;51.124;7.190;2022-12-18T16:01:28;-1.10;93.10
53695;DHT22;39588;51.124;7.190;2022-12-18T16:03:55;-1.10;93.00
53695;DHT22;39588;51.124;7.190;2022-12-18T16:06:24;-1.10;93.00
53695;DHT22;39588;51.124;7.190;2022-12-18T16:11:26;-1.20;93.20
53695;DHT22;39588;51.124;7.190;2022-12-18T16:24:00;-1.30;93.60
53695;DHT22;39588;51.124;7.190;2022-12-18T16:26:26;-1.30;93.70
53695;DHT22;39588;51.124;7.190;2022-12-18T16:28:51;-1.30;93.70
53695;DHT22;39588;51.124;7.190;2022-12-18T16:31:18;-1.30;93.90
53695;DHT22;39588;51.124;7.190;2022-12-18T16:33:44;-1.30;93.80
53695;DHT22;39588;51.124;7.190;2022-12-18T16:36:10;-1.30;93.90
53695;DHT22;39588;51.124;7.190;2022-12-18T16:38:35;-1.20;93.80
53695;DHT22;39588;51.124;7.190;2022-12-18T16:41:01;-1.20;93.80
53695;DHT22;39588;51.124;7.190;2022-12-18T16:43:45;-1.20;93.90
53695;DHT22;39588;51.124;7.190;2022-12-18T16:51:04;-1.20;94.20
53695;DHT22;39588;51.124;7.190;2022-12-18T16:53:32;-1.20;94.30
53695;DHT22;39588;51.124;7.190;2022-12-18T16:55:58;-1.20;94.40
53695;DHT22;39588;51.124;7.190;2022-12-18T16:58:24;-1.20;94.30
53695;DHT22;39588;51.124;7.190;2022-12-18T17:03:15;-1.20;94.50
53695;DHT22;39588;51.124;7.190;2022-12-18T17:05:41;-1.20;94.50
53695;DHT22;39588;51.124;7.190;2022-12-18T17:08:07;-1.20;94.70
53695;DHT22;39588;51.124;7.190;2022-12-18T17:10:34;-1.30;94.70
53695;DHT22;39588;51.124;7.190;2022-12-18T17:30:03;-1.40;95.20
53695;DHT22;39588;51.124;7.190;2022-12-18T17:44:40;-1.50;95.40
53695;DHT22;39588;51.124;7.190;2022-12-18T17:47:06;-1.50;95.40
53695;DHT22;39588;51.124;7.190;2022-12-18T17:49:34;-1.60;95.50
53695;DHT22;39588;51.124;7.190;2022-12-18T17:54:26;-1.50;95.50
53695;DHT22;39588;51.124;7.190;2022-12-18T18:04:09;-1.60;95.60
53695;DHT22;39588;51.124;7.190;2022-12-18T18:06:35;-1.60;95.60
53695;DHT22;39588;51.124;7.190;2022-12-18T18:09:00;-1.60;95.70
53695;DHT22;39588;51.124;7.190;2022-12-18T18:11:26;-1.60;95.70
53695;DHT22;39588;51.124;7.190;2022-12-18T18:14:15;-1.60;95.70
53695;DHT22;39588;51.124;7.190;2022-12-18T18:16:43;-1.70;95.60
53695;DHT22;39588;51.124;7.190;2022-12-18T18:19:11;-1.60;95.80
53695;DHT22;39588;51.124;7.190;2022-12-18T18:21:39;-1.60;95.70
53695;DHT22;39588;51.124;7.190;2022-12-18T18:24:06;-1.60;95.70
53695;DHT22;39588;51.124;7.190;2022-12-18T18:26:33;-1.60;95.70
53695;DHT22;39588;51.124;7.190;2022-12-18T18:29:00;-1.70;95.70
53695;DHT22;39588;51.124;7.190;2022-12-18T18:31:30;-1.60;95.60
53695;DHT22;39588;51.124;7.190;2022-12-18T18:36:23;-1.80;95.70
53695;DHT22;39588;51.124;7.190;2022-12-18T18:38:50;-1.60;95.70
53695;DHT22;39588;51.124;7.190;2022-12-18T18:41:16;-1.60;95.70
53695;DHT22;39588;51.124;7.190;2022-12-18T18:43:42;-1.50;95.70
53695;DHT22;39588;51.124;7.190;2022-12-18T18:46:11;-1.60;95.60
53695;DHT22;39588;51.124;7.190;2022-12-18T18:51:14;-1.50;95.60
53695;DHT22;39588;51.124;7.190;2022-12-18T18:53:43;-1.50;95.60
53695;DHT22;39588;51.124;7.190;2022-12-18T18:56:14;-1.60;95.60
53695;DHT22;39588;51.124;7.190;2022-12-18T18:58:41;-1.60;95.50
53695;DHT22;39588;51.124;7.190;2022-12-18T19:01:12;-1.60;95.50
53695;DHT22;39588;51.124;7.190;2022-12-18T19:03:38;-1.50;95.50
53695;DHT22;39588;51.124;7.190;2022-12-18T19:06:05;-1.50;95.50
53695;DHT22;39588;51.124;7.190;2022-12-18T19:08:34;-1.40;95.50
53695;DHT22;39588;51.124;7.190;2022-12-18T19:11:00;-1.40;95.40
53695;DHT22;39588;51.124;7.190;2022-12-18T19:13:30;-1.40;95.30
53695;DHT22;39588;51.124;7.190;2022-12-18T19:16:05;-1.50;95.30
53695;DHT22;39588;51.124;7.190;2022-12-18T19:18:41;-1.50;95.40
53695;DHT22;39588;51.124;7.190;2022-12-18T19:23:33;-1.50;95.30
53695;DHT22;39588;51.124;7.190;2022-12-18T19:26:00;-1.50;95.30
53695;DHT22;39588;51.124;7.190;2022-12-18T19:28:26;-1.50;95.30
53695;DHT22;39588;51.124;7.190;2022-12-18T19:30:54;-1.50;95.30